LIRF/FCO METAR and TAF weather

Enter ICAO airport designator
Station Type Date Time Source
LIRF METAR 2022/01/29 00:50 UTC NOAA

LIRF 290050Z 34006KT CAVOK 06/M03 Q1027 NOSIG


Station Type Date Time Source
LIRF Decoded METAR 2022/01/29 00:50 UTC NOAA

Roma Fiumicino, Italy (LIRF) 41-48N 012-14E 3M
Jan 28, 2022 - 07:50 PM EST / 2022.01.29 0050 UTC
Wind: from the NNW (340 degrees) at 7 MPH (6 KT):0
Visibility: greater than 7 mile(s):0
Temperature: 42 F (6 C)
Dew Point: 26 F (-3 C)
Relative Humidity: 52%
Pressure (altimeter): 30.33 in. Hg (1027 hPa)
ob: LIRF 290050Z 34006KT CAVOK 06/M03 Q1027 NOSIG
cycle: 1

Station Type Date Time Source
LIRF TAF 2022/01/28 18:22 UTC NOAA

TAF LIRF 281700Z 2818/2924 36010KT 9999 FEW040
BECMG 2818/2821 02014KT
BECMG 2915/2917 VRB05KT

Example: see airport list